sensor_id;sensor_type;location;lat;lon;timestamp;temperature;humidity
71237;DHT22;58984;51.960;5.582;2023-05-10T00:00:37;20.00;62.30
71237;DHT22;58984;51.960;5.582;2023-05-10T00:03:02;19.90;62.20
71237;DHT22;58984;51.960;5.582;2023-05-10T00:05:29;19.90;62.10
71237;DHT22;58984;51.960;5.582;2023-05-10T00:07:55;19.90;62.10
71237;DHT22;58984;51.960;5.582;2023-05-10T00:10:20;20.00;62.30
71237;DHT22;58984;51.960;5.582;2023-05-10T00:12:46;19.90;62.20
71237;DHT22;58984;51.960;5.582;2023-05-10T00:15:11;20.00;62.30
71237;DHT22;58984;51.960;5.582;2023-05-10T00:17:37;20.00;62.40
71237;DHT22;58984;51.960;5.582;2023-05-10T00:20:03;19.90;62.20
71237;DHT22;58984;51.960;5.582;2023-05-10T00:22:30;19.90;62.30
71237;DHT22;58984;51.960;5.582;2023-05-10T00:24:56;19.90;62.20
71237;DHT22;58984;51.960;5.582;2023-05-10T00:27:21;19.90;62.30
71237;DHT22;58984;51.960;5.582;2023-05-10T00:29:47;19.90;62.30
71237;DHT22;58984;51.960;5.582;2023-05-10T00:32:12;19.90;62.30
71237;DHT22;58984;51.960;5.582;2023-05-10T00:34:39;19.90;62.30
71237;DHT22;58984;51.960;5.582;2023-05-10T00:37:05;19.90;62.30
71237;DHT22;58984;51.960;5.582;2023-05-10T00:39:30;19.90;62.30
71237;DHT22;58984;51.960;5.582;2023-05-10T00:41:56;19.90;62.30
71237;DHT22;58984;51.960;5.582;2023-05-10T00:44:22;19.90;62.30
71237;DHT22;58984;51.960;5.582;2023-05-10T00:46:48;19.90;62.30
71237;DHT22;58984;51.960;5.582;2023-05-10T00:49:14;19.90;62.40
71237;DHT22;58984;51.960;5.582;2023-05-10T00:51:40;19.90;62.40
71237;DHT22;58984;51.960;5.582;2023-05-10T00:54:09;19.90;62.30
71237;DHT22;58984;51.960;5.582;2023-05-10T00:56:36;19.90;62.40
71237;DHT22;58984;51.960;5.582;2023-05-10T00:59:02;19.90;62.40
71237;DHT22;58984;51.960;5.582;2023-05-10T01:01:28;19.90;62.40
71237;DHT22;58984;51.960;5.582;2023-05-10T01:03:55;19.90;62.40
71237;DHT22;58984;51.960;5.582;2023-05-10T01:06:20;19.80;61.60
71237;DHT22;58984;51.960;5.582;2023-05-10T01:08:46;19.90;62.50
71237;DHT22;58984;51.960;5.582;2023-05-10T01:11:13;19.90;62.40
71237;DHT22;58984;51.960;5.582;2023-05-10T01:13:41;19.90;62.30
71237;DHT22;58984;51.960;5.582;2023-05-10T01:16:07;19.80;62.30
71237;DHT22;58984;51.960;5.582;2023-05-10T01:18:35;19.90;62.30
71237;DHT22;58984;51.960;5.582;2023-05-10T01:21:29;19.80;62.30
71237;DHT22;58984;51.960;5.582;2023-05-10T01:32:55;19.80;62.20
71237;DHT22;58984;51.960;5.582;2023-05-10T01:37:59;19.80;62.30
71237;DHT22;58984;51.960;5.582;2023-05-10T01:40:42;19.90;62.40
71237;DHT22;58984;51.960;5.582;2023-05-10T01:43:19;19.80;62.00
71237;DHT22;58984;51.960;5.582;2023-05-10T01:46:08;19.80;62.10
71237;DHT22;58984;51.960;5.582;2023-05-10T01:48:57;19.70;62.30
71237;DHT22;58984;51.960;5.582;2023-05-10T01:51:25;19.80;62.40
71237;DHT22;58984;51.960;5.582;2023-05-10T01:53:59;19.80;62.30
71237;DHT22;58984;51.960;5.582;2023-05-10T01:56:26;19.80;62.40
71237;DHT22;58984;51.960;5.582;2023-05-10T01:58:53;19.80;62.40
71237;DHT22;58984;51.960;5.582;2023-05-10T02:01:21;19.80;62.40
71237;DHT22;58984;51.960;5.582;2023-05-10T02:03:48;19.80;62.30
71237;DHT22;58984;51.960;5.582;2023-05-10T02:06:16;19.80;62.30
71237;DHT22;58984;51.960;5.582;2023-05-10T02:08:45;19.70;62.30
71237;DHT22;58984;51.960;5.582;2023-05-10T02:11:13;19.80;62.30
71237;DHT22;58984;51.960;5.582;2023-05-10T02:13:39;19.80;62.30
71237;DHT22;58984;51.960;5.582;2023-05-10T02:16:06;19.80;62.40
71237;DHT22;58984;51.960;5.582;2023-05-10T02:18:33;19.80;62.30
71237;DHT22;58984;51.960;5.582;2023-05-10T02:21:00;19.80;62.30
71237;DHT22;58984;51.960;5.582;2023-05-10T02:23:27;19.80;62.20
71237;DHT22;58984;51.960;5.582;2023-05-10T02:25:55;19.80;62.20
71237;DHT22;58984;51.960;5.582;2023-05-10T02:28:22;19.80;62.30
71237;DHT22;58984;51.960;5.582;2023-05-10T02:30:49;19.70;62.20
71237;DHT22;58984;51.960;5.582;2023-05-10T02:33:16;19.70;62.20
71237;DHT22;58984;51.960;5.582;2023-05-10T02:35:42;19.80;62.20
71237;DHT22;58984;51.960;5.582;2023-05-10T02:38:08;19.80;62.20
71237;DHT22;58984;51.960;5.582;2023-05-10T02:40:36;19.70;62.10
71237;DHT22;58984;51.960;5.582;2023-05-10T02:43:04;19.70;62.10
71237;DHT22;58984;51.960;5.582;2023-05-10T02:45:32;19.70;62.10
71237;DHT22;58984;51.960;5.582;2023-05-10T02:47:59;19.80;62.20
71237;DHT22;58984;51.960;5.582;2023-05-10T02:50:30;19.80;62.10
71237;DHT22;58984;51.960;5.582;2023-05-10T02:53:00;19.70;62.10
71237;DHT22;58984;51.960;5.582;2023-05-10T02:55:32;19.70;62.10
71237;DHT22;58984;51.960;5.582;2023-05-10T02:58:01;19.70;62.00
71237;DHT22;58984;51.960;5.582;2023-05-10T03:00:28;19.70;62.00
71237;DHT22;58984;51.960;5.582;2023-05-10T03:02:54;19.70;62.00
71237;DHT22;58984;51.960;5.582;2023-05-10T03:05:20;19.70;62.00
71237;DHT22;58984;51.960;5.582;2023-05-10T03:07:46;19.70;62.00
71237;DHT22;58984;51.960;5.582;2023-05-10T03:10:12;19.70;62.00
71237;DHT22;58984;51.960;5.582;2023-05-10T03:15:54;19.60;62.00
71237;DHT22;58984;51.960;5.582;2023-05-10T03:18:23;19.70;62.00
71237;DHT22;58984;51.960;5.582;2023-05-10T03:20:59;19.70;61.80
71237;DHT22;58984;51.960;5.582;2023-05-10T03:23:35;19.60;61.80
71237;DHT22;58984;51.960;5.582;2023-05-10T03:26:04;19.70;62.00
71237;DHT22;58984;51.960;5.582;2023-05-10T03:28:31;19.70;62.80
71237;DHT22;58984;51.960;5.582;2023-05-10T03:30:59;19.60;61.90
71237;DHT22;58984;51.960;5.582;2023-05-10T03:33:25;19.60;61.80
71237;DHT22;58984;51.960;5.582;2023-05-10T03:35:50;19.60;61.80
71237;DHT22;58984;51.960;5.582;2023-05-10T03:38:16;19.60;62.00
71237;DHT22;58984;51.960;5.582;2023-05-10T03:40:41;19.60;61.90
71237;DHT22;58984;51.960;5.582;2023-05-10T03:43:07;19.60;61.80
71237;DHT22;58984;51.960;5.582;2023-05-10T03:45:33;19.70;62.00
71237;DHT22;58984;51.960;5.582;2023-05-10T03:47:58;19.60;61.90
71237;DHT22;58984;51.960;5.582;2023-05-10T03:50:24;19.60;61.80
71237;DHT22;58984;51.960;5.582;2023-05-10T03:52:50;19.60;61.80
71237;DHT22;58984;51.960;5.582;2023-05-10T03:55:16;19.60;61.90
71237;DHT22;58984;51.960;5.582;2023-05-10T03:57:42;19.60;61.90
71237;DHT22;58984;51.960;5.582;2023-05-10T04:00:08;19.60;61.80
71237;DHT22;58984;51.960;5.582;2023-05-10T04:02:34;19.60;61.90
71237;DHT22;58984;51.960;5.582;2023-05-10T04:04:59;19.60;61.90
71237;DHT22;58984;51.960;5.582;2023-05-10T04:07:25;19.60;62.00
71237;DHT22;58984;51.960;5.582;2023-05-10T04:09:50;19.60;61.90
71237;DHT22;58984;51.960;5.582;2023-05-10T04:12:16;19.60;61.90
71237;DHT22;58984;51.960;5.582;2023-05-10T04:14:42;19.60;61.80
71237;DHT22;58984;51.960;5.582;2023-05-10T04:17:07;19.60;61.90
71237;DHT22;58984;51.960;5.582;2023-05-10T04:19:33;19.60;62.00
71237;DHT22;58984;51.960;5.582;2023-05-10T04:21:58;19.60;61.90
71237;DHT22;58984;51.960;5.582;2023-05-10T04:24:24;19.60;62.00
71237;DHT22;58984;51.960;5.582;2023-05-10T04:26:50;19.60;62.10
71237;DHT22;58984;51.960;5.582;2023-05-10T04:29:16;19.60;62.00
71237;DHT22;58984;51.960;5.582;2023-05-10T04:31:42;19.60;62.00
71237;DHT22;58984;51.960;5.582;2023-05-10T04:34:07;19.60;62.00
71237;DHT22;58984;51.960;5.582;2023-05-10T04:36:33;19.60;62.00
71237;DHT22;58984;51.960;5.582;2023-05-10T04:39:01;19.60;62.00
71237;DHT22;58984;51.960;5.582;2023-05-10T04:41:28;19.50;61.90
71237;DHT22;58984;51.960;5.582;2023-05-10T04:43:53;19.50;62.00
71237;DHT22;58984;51.960;5.582;2023-05-10T04:46:19;19.60;62.00
71237;DHT22;58984;51.960;5.582;2023-05-10T04:48:44;19.50;61.90
71237;DHT22;58984;51.960;5.582;2023-05-10T04:51:11;19.60;62.10
71237;DHT22;58984;51.960;5.582;2023-05-10T04:53:36;19.60;62.10
71237;DHT22;58984;51.960;5.582;2023-05-10T04:56:02;19.50;62.80
71237;DHT22;58984;51.960;5.582;2023-05-10T04:58:28;19.50;61.90
71237;DHT22;58984;51.960;5.582;2023-05-10T05:00:53;19.50;61.90
71237;DHT22;58984;51.960;5.582;2023-05-10T05:03:19;19.60;62.00
71237;DHT22;58984;51.960;5.582;2023-05-10T05:05:44;19.60;62.00
71237;DHT22;58984;51.960;5.582;2023-05-10T05:08:10;19.50;62.00
71237;DHT22;58984;51.960;5.582;2023-05-10T05:10:36;19.50;62.00
71237;DHT22;58984;51.960;5.582;2023-05-10T05:13:01;19.60;62.10
71237;DHT22;58984;51.960;5.582;2023-05-10T05:15:27;19.50;62.00
71237;DHT22;58984;51.960;5.582;2023-05-10T05:17:53;19.60;62.00
71237;DHT22;58984;51.960;5.582;2023-05-10T05:20:18;19.50;62.00
71237;DHT22;58984;51.960;5.582;2023-05-10T05:22:44;19.50;62.00
71237;DHT22;58984;51.960;5.582;2023-05-10T05:25:10;19.50;62.00
71237;DHT22;58984;51.960;5.582;2023-05-10T05:27:37;19.50;62.10
71237;DHT22;58984;51.960;5.582;2023-05-10T05:30:02;19.50;62.00
71237;DHT22;58984;51.960;5.582;2023-05-10T05:32:29;19.50;61.90
71237;DHT22;58984;51.960;5.582;2023-05-10T05:34:54;19.50;62.00
71237;DHT22;58984;51.960;5.582;2023-05-10T05:37:20;19.50;62.00
71237;DHT22;58984;51.960;5.582;2023-05-10T05:39:47;19.50;62.00
71237;DHT22;58984;51.960;5.582;2023-05-10T05:42:13;19.50;62.00
71237;DHT22;58984;51.960;5.582;2023-05-10T05:44:40;19.50;62.00
71237;DHT22;58984;51.960;5.582;2023-05-10T05:47:06;19.50;62.10
71237;DHT22;58984;51.960;5.582;2023-05-10T05:49:32;19.50;62.10
71237;DHT22;58984;51.960;5.582;2023-05-10T05:52:01;19.50;62.10
71237;DHT22;58984;51.960;5.582;2023-05-10T05:54:27;19.50;62.10
71237;DHT22;58984;51.960;5.582;2023-05-10T05:57:00;19.50;62.10
71237;DHT22;58984;51.960;5.582;2023-05-10T05:59:26;19.40;62.10
71237;DHT22;58984;51.960;5.582;2023-05-10T06:01:52;19.50;62.10
71237;DHT22;58984;51.960;5.582;2023-05-10T06:04:18;19.50;62.20
71237;DHT22;58984;51.960;5.582;2023-05-10T06:06:43;19.50;62.10
71237;DHT22;58984;51.960;5.582;2023-05-10T06:09:09;19.50;62.10
71237;DHT22;58984;51.960;5.582;2023-05-10T06:11:35;19.50;62.90
71237;DHT22;58984;51.960;5.582;2023-05-10T06:14:01;19.50;62.10
71237;DHT22;58984;51.960;5.582;2023-05-10T06:16:27;19.50;62.20
71237;DHT22;58984;51.960;5.582;2023-05-10T06:18:53;19.50;62.20
71237;DHT22;58984;51.960;5.582;2023-05-10T06:21:18;19.50;62.20
71237;DHT22;58984;51.960;5.582;2023-05-10T06:23:44;19.50;62.20
71237;DHT22;58984;51.960;5.582;2023-05-10T06:26:10;19.50;62.20
71237;DHT22;58984;51.960;5.582;2023-05-10T06:28:36;19.50;62.20
71237;DHT22;58984;51.960;5.582;2023-05-10T06:31:03;19.50;62.30
71237;DHT22;58984;51.960;5.582;2023-05-10T06:33:29;19.50;62.30
71237;DHT22;58984;51.960;5.582;2023-05-10T06:35:55;19.50;62.30
71237;DHT22;58984;51.960;5.582;2023-05-10T06:38:21;19.50;62.20
71237;DHT22;58984;51.960;5.582;2023-05-10T06:40:47;19.50;62.30
71237;DHT22;58984;51.960;5.582;2023-05-10T06:43:12;19.50;62.30
71237;DHT22;58984;51.960;5.582;2023-05-10T06:45:38;19.50;62.30
71237;DHT22;58984;51.960;5.582;2023-05-10T06:48:03;19.50;62.20
71237;DHT22;58984;51.960;5.582;2023-05-10T06:50:29;19.50;62.20
71237;DHT22;58984;51.960;5.582;2023-05-10T06:52:54;19.50;62.20
71237;DHT22;58984;51.960;5.582;2023-05-10T06:55:21;19.50;62.40
71237;DHT22;58984;51.960;5.582;2023-05-10T06:57:46;19.50;62.30
71237;DHT22;58984;51.960;5.582;2023-05-10T07:00:13;19.50;62.30
71237;DHT22;58984;51.960;5.582;2023-05-10T07:02:39;19.50;62.30
71237;DHT22;58984;51.960;5.582;2023-05-10T07:05:05;19.50;62.40
71237;DHT22;58984;51.960;5.582;2023-05-10T07:07:31;19.50;63.30
71237;DHT22;58984;51.960;5.582;2023-05-10T07:09:57;19.50;62.50
71237;DHT22;58984;51.960;5.582;2023-05-10T07:12:23;19.50;62.50
71237;DHT22;58984;51.960;5.582;2023-05-10T07:14:49;19.50;62.50
71237;DHT22;58984;51.960;5.582;2023-05-10T07:17:14;19.50;62.70
71237;DHT22;58984;51.960;5.582;2023-05-10T07:19:41;19.50;62.70
71237;DHT22;58984;51.960;5.582;2023-05-10T07:22:07;19.50;62.60
71237;DHT22;58984;51.960;5.582;2023-05-10T07:24:33;19.50;62.70
71237;DHT22;58984;51.960;5.582;2023-05-10T07:26:59;19.50;62.60
71237;DHT22;58984;51.960;5.582;2023-05-10T07:29:25;19.50;62.70
71237;DHT22;58984;51.960;5.582;2023-05-10T07:31:50;19.50;62.80
71237;DHT22;58984;51.960;5.582;2023-05-10T07:34:16;19.50;62.80
71237;DHT22;58984;51.960;5.582;2023-05-10T07:36:41;19.50;62.80
71237;DHT22;58984;51.960;5.582;2023-05-10T07:39:07;19.50;62.80
71237;DHT22;58984;51.960;5.582;2023-05-10T07:41:33;19.50;62.80
71237;DHT22;58984;51.960;5.582;2023-05-10T07:43:58;19.50;62.80
71237;DHT22;58984;51.960;5.582;2023-05-10T07:46:24;19.50;62.80
71237;DHT22;58984;51.960;5.582;2023-05-10T07:48:49;19.50;62.80
71237;DHT22;58984;51.960;5.582;2023-05-10T07:51:15;19.50;62.80
71237;DHT22;58984;51.960;5.582;2023-05-10T07:53:40;19.50;62.80
71237;DHT22;58984;51.960;5.582;2023-05-10T07:58:50;19.50;62.80
71237;DHT22;58984;51.960;5.582;2023-05-10T08:01:15;19.60;62.90
71237;DHT22;58984;51.960;5.582;2023-05-10T08:03:41;19.60;62.90
71237;DHT22;58984;51.960;5.582;2023-05-10T08:06:07;19.60;62.90
71237;DHT22;58984;51.960;5.582;2023-05-10T08:08:32;19.60;62.90
71237;DHT22;58984;51.960;5.582;2023-05-10T08:10:58;19.50;62.80
71237;DHT22;58984;51.960;5.582;2023-05-10T08:13:23;19.60;62.90
71237;DHT22;58984;51.960;5.582;2023-05-10T08:15:49;19.60;62.90
71237;DHT22;58984;51.960;5.582;2023-05-10T08:18:14;19.60;62.90
71237;DHT22;58984;51.960;5.582;2023-05-10T08:20:40;19.60;62.90
71237;DHT22;58984;51.960;5.582;2023-05-10T08:23:05;19.60;62.90
71237;DHT22;58984;51.960;5.582;2023-05-10T08:25:31;19.60;62.90
71237;DHT22;58984;51.960;5.582;2023-05-10T08:27:57;19.60;62.90
71237;DHT22;58984;51.960;5.582;2023-05-10T08:30:23;19.60;62.90
71237;DHT22;58984;51.960;5.582;2023-05-10T08:32:48;19.60;63.70
71237;DHT22;58984;51.960;5.582;2023-05-10T08:35:15;19.70;63.00
71237;DHT22;58984;51.960;5.582;2023-05-10T08:37:40;19.60;62.90
71237;DHT22;58984;51.960;5.582;2023-05-10T08:40:06;19.60;62.90
71237;DHT22;58984;51.960;5.582;2023-05-10T08:42:36;19.60;62.90
71237;DHT22;58984;51.960;5.582;2023-05-10T08:45:04;19.60;62.90
71237;DHT22;58984;51.960;5.582;2023-05-10T08:47:30;19.60;62.90
71237;DHT22;58984;51.960;5.582;2023-05-10T08:49:57;19.70;63.00
71237;DHT22;58984;51.960;5.582;2023-05-10T08:52:26;19.70;63.00
71237;DHT22;58984;51.960;5.582;2023-05-10T08:54:53;19.70;63.00
71237;DHT22;58984;51.960;5.582;2023-05-10T08:57:19;19.70;63.00
71237;DHT22;58984;51.960;5.582;2023-05-10T08:59:46;19.70;63.00
71237;DHT22;58984;51.960;5.582;2023-05-10T09:02:13;19.70;63.00
71237;DHT22;58984;51.960;5.582;2023-05-10T09:04:39;19.70;63.00
71237;DHT22;58984;51.960;5.582;2023-05-10T09:07:06;19.80;63.10
71237;DHT22;58984;51.960;5.582;2023-05-10T09:09:33;19.70;63.00
71237;DHT22;58984;51.960;5.582;2023-05-10T09:11:58;19.80;63.10
71237;DHT22;58984;51.960;5.582;2023-05-10T09:14:25;19.80;63.10
71237;DHT22;58984;51.960;5.582;2023-05-10T09:16:51;19.80;63.10
71237;DHT22;58984;51.960;5.582;2023-05-10T09:19:17;19.80;63.10
71237;DHT22;58984;51.960;5.582;2023-05-10T09:21:43;19.80;63.10
71237;DHT22;58984;51.960;5.582;2023-05-10T09:24:09;19.80;63.10
71237;DHT22;58984;51.960;5.582;2023-05-10T09:26:35;19.80;63.10
71237;DHT22;58984;51.960;5.582;2023-05-10T09:29:02;19.80;63.10
71237;DHT22;58984;51.960;5.582;2023-05-10T09:31:48;19.90;63.20
71237;DHT22;58984;51.960;5.582;2023-05-10T09:34:18;19.80;63.20
71237;DHT22;58984;51.960;5.582;2023-05-10T09:36:55;19.90;63.20
71237;DHT22;58984;51.960;5.582;2023-05-10T09:39:33;19.80;63.10
71237;DHT22;58984;51.960;5.582;2023-05-10T09:42:01;19.90;63.20
71237;DHT22;58984;51.960;5.582;2023-05-10T09:44:28;20.00;63.30
71237;DHT22;58984;51.960;5.582;2023-05-10T09:46:54;20.00;63.30
71237;DHT22;58984;51.960;5.582;2023-05-10T09:49:23;20.00;63.30
71237;DHT22;58984;51.960;5.582;2023-05-10T09:52:09;19.90;63.20
71237;DHT22;58984;51.960;5.582;2023-05-10T09:54:34;19.90;63.30
71237;DHT22;58984;51.960;5.582;2023-05-10T09:57:00;20.00;63.30
71237;DHT22;58984;51.960;5.582;2023-05-10T09:59:27;20.00;63.30
71237;DHT22;58984;51.960;5.582;2023-05-10T10:01:56;20.00;63.30
71237;DHT22;58984;51.960;5.582;2023-05-10T10:04:23;20.00;63.30
71237;DHT22;58984;51.960;5.582;2023-05-10T10:07:02;20.00;63.30
71237;DHT22;58984;51.960;5.582;2023-05-10T10:09:28;20.00;63.30
71237;DHT22;58984;51.960;5.582;2023-05-10T10:11:54;20.00;63.30
71237;DHT22;58984;51.960;5.582;2023-05-10T10:14:20;20.10;63.40
71237;DHT22;58984;51.960;5.582;2023-05-10T10:16:47;20.10;63.50
71237;DHT22;58984;51.960;5.582;2023-05-10T10:19:13;20.10;63.40
71237;DHT22;58984;51.960;5.582;2023-05-10T10:21:39;20.10;63.40
71237;DHT22;58984;51.960;5.582;2023-05-10T10:24:04;20.10;63.50
71237;DHT22;58984;51.960;5.582;2023-05-10T10:26:33;20.20;63.50
71237;DHT22;58984;51.960;5.582;2023-05-10T10:29:07;20.10;63.40
71237;DHT22;58984;51.960;5.582;2023-05-10T10:34:32;20.10;63.40
71237;DHT22;58984;51.960;5.582;2023-05-10T10:37:04;20.20;63.30
71237;DHT22;58984;51.960;5.582;2023-05-10T10:39:30;20.10;63.20
71237;DHT22;58984;51.960;5.582;2023-05-10T10:41:57;20.20;63.30
71237;DHT22;58984;51.960;5.582;2023-05-10T10:50:02;20.20;63.50
71237;DHT22;58984;51.960;5.582;2023-05-10T11:00:35;20.20;63.50
71237;DHT22;58984;51.960;5.582;2023-05-10T11:03:05;20.20;63.50
71237;DHT22;58984;51.960;5.582;2023-05-10T11:05:40;20.30;63.50
71237;DHT22;58984;51.960;5.582;2023-05-10T11:08:29;20.30;63.50
71237;DHT22;58984;51.960;5.582;2023-05-10T11:11:02;20.20;63.50
71237;DHT22;58984;51.960;5.582;2023-05-10T11:13:45;20.20;63.50
71237;DHT22;58984;51.960;5.582;2023-05-10T11:18:53;20.30;63.50
71237;DHT22;58984;51.960;5.582;2023-05-10T11:21:19;20.30;63.60
71237;DHT22;58984;51.960;5.582;2023-05-10T11:23:53;20.30;63.50
71237;DHT22;58984;51.960;5.582;2023-05-10T11:26:22;20.30;64.40
71237;DHT22;58984;51.960;5.582;2023-05-10T11:28:52;20.30;63.50
71237;DHT22;58984;51.960;5.582;2023-05-10T11:31:19;20.30;63.50
71237;DHT22;58984;51.960;5.582;2023-05-10T11:33:50;20.30;63.50
71237;DHT22;58984;51.960;5.582;2023-05-10T11:36:23;20.30;63.50
71237;DHT22;58984;51.960;5.582;2023-05-10T11:38:49;20.30;63.50
71237;DHT22;58984;51.960;5.582;2023-05-10T11:41:17;20.40;63.50
71237;DHT22;58984;51.960;5.582;2023-05-10T11:43:46;20.40;63.50
71237;DHT22;58984;51.960;5.582;2023-05-10T11:46:13;20.40;63.50
71237;DHT22;58984;51.960;5.582;2023-05-10T11:48:39;20.40;63.40
71237;DHT22;58984;51.960;5.582;2023-05-10T11:51:06;20.50;63.50
71237;DHT22;58984;51.960;5.582;2023-05-10T11:53:33;20.50;63.50
71237;DHT22;58984;51.960;5.582;2023-05-10T11:56:11;20.50;63.50
71237;DHT22;58984;51.960;5.582;2023-05-10T11:58:38;20.50;63.60
71237;DHT22;58984;51.960;5.582;2023-05-10T12:01:05;20.60;63.50
71237;DHT22;58984;51.960;5.582;2023-05-10T12:03:32;20.60;63.60
71237;DHT22;58984;51.960;5.582;2023-05-10T12:05:58;20.60;63.50
71237;DHT22;58984;51.960;5.582;2023-05-10T12:08:29;20.60;63.60
71237;DHT22;58984;51.960;5.582;2023-05-10T12:11:06;20.60;63.60
71237;DHT22;58984;51.960;5.582;2023-05-10T12:13:32;20.60;63.70
71237;DHT22;58984;51.960;5.582;2023-05-10T12:15:58;20.70;63.60
71237;DHT22;58984;51.960;5.582;2023-05-10T12:18:24;20.70;63.60
71237;DHT22;58984;51.960;5.582;2023-05-10T12:20:52;20.70;63.60
71237;DHT22;58984;51.960;5.582;2023-05-10T12:23:20;20.70;63.60
71237;DHT22;58984;51.960;5.582;2023-05-10T12:25:45;20.70;63.60
71237;DHT22;58984;51.960;5.582;2023-05-10T12:28:11;20.70;63.50
71237;DHT22;58984;51.960;5.582;2023-05-10T12:30:38;20.80;63.60
71237;DHT22;58984;51.960;5.582;2023-05-10T12:33:12;20.80;63.60
71237;DHT22;58984;51.960;5.582;2023-05-10T12:35:52;20.70;63.60
71237;DHT22;58984;51.960;5.582;2023-05-10T12:38:29;20.70;63.60
71237;DHT22;58984;51.960;5.582;2023-05-10T12:40:57;20.80;63.60
71237;DHT22;58984;51.960;5.582;2023-05-10T12:43:23;20.80;63.60
71237;DHT22;58984;51.960;5.582;2023-05-10T12:45:48;20.80;63.50
71237;DHT22;58984;51.960;5.582;2023-05-10T12:48:16;20.80;63.30
71237;DHT22;58984;51.960;5.582;2023-05-10T12:50:42;20.80;63.30
71237;DHT22;58984;51.960;5.582;2023-05-10T12:53:07;20.80;63.20
71237;DHT22;58984;51.960;5.582;2023-05-10T12:55:33;20.80;63.40
71237;DHT22;58984;51.960;5.582;2023-05-10T12:57:59;20.80;63.30
71237;DHT22;58984;51.960;5.582;2023-05-10T13:00:25;20.80;63.20
71237;DHT22;58984;51.960;5.582;2023-05-10T13:02:51;20.80;63.10
71237;DHT22;58984;51.960;5.582;2023-05-10T13:05:16;20.80;63.10
71237;DHT22;58984;51.960;5.582;2023-05-10T13:07:42;20.80;63.10
71237;DHT22;58984;51.960;5.582;2023-05-10T13:10:09;20.80;63.10
71237;DHT22;58984;51.960;5.582;2023-05-10T13:12:35;20.80;63.00
71237;DHT22;58984;51.960;5.582;2023-05-10T13:15:02;20.80;63.10
71237;DHT22;58984;51.960;5.582;2023-05-10T13:17:28;20.80;63.00
71237;DHT22;58984;51.960;5.582;2023-05-10T13:19:54;20.80;63.00
71237;DHT22;58984;51.960;5.582;2023-05-10T13:22:20;20.80;63.10
71237;DHT22;58984;51.960;5.582;2023-05-10T13:24:45;20.80;63.20
71237;DHT22;58984;51.960;5.582;2023-05-10T13:27:11;20.80;63.20
71237;DHT22;58984;51.960;5.582;2023-05-10T13:29:36;20.80;63.30
71237;DHT22;58984;51.960;5.582;2023-05-10T13:32:02;20.70;63.20
71237;DHT22;58984;51.960;5.582;2023-05-10T13:34:28;20.70;63.20
71237;DHT22;58984;51.960;5.582;2023-05-10T13:36:53;20.70;63.20
71237;DHT22;58984;51.960;5.582;2023-05-10T13:39:21;20.80;63.30
71237;DHT22;58984;51.960;5.582;2023-05-10T13:41:46;20.70;63.20
71237;DHT22;58984;51.960;5.582;2023-05-10T13:44:13;20.70;63.30
71237;DHT22;58984;51.960;5.582;2023-05-10T13:46:40;20.70;63.30
71237;DHT22;58984;51.960;5.582;2023-05-10T13:49:05;20.70;63.50
71237;DHT22;58984;51.960;5.582;2023-05-10T13:51:31;20.70;63.40
71237;DHT22;58984;51.960;5.582;2023-05-10T13:53:59;20.70;63.60
71237;DHT22;58984;51.960;5.582;2023-05-10T13:56:25;20.70;63.50
71237;DHT22;58984;51.960;5.582;2023-05-10T13:58:50;20.70;63.60
71237;DHT22;58984;51.960;5.582;2023-05-10T14:01:16;20.70;64.40
71237;DHT22;58984;51.960;5.582;2023-05-10T14:03:42;20.70;63.60
71237;DHT22;58984;51.960;5.582;2023-05-10T14:06:08;20.70;63.70
71237;DHT22;58984;51.960;5.582;2023-05-10T14:08:35;20.70;63.70
71237;DHT22;58984;51.960;5.582;2023-05-10T14:11:00;20.60;63.70
71237;DHT22;58984;51.960;5.582;2023-05-10T14:13:26;20.60;63.70
71237;DHT22;58984;51.960;5.582;2023-05-10T14:15:53;20.70;63.90
71237;DHT22;58984;51.960;5.582;2023-05-10T14:18:19;20.70;64.00
71237;DHT22;58984;51.960;5.582;2023-05-10T14:20:44;20.70;64.00
71237;DHT22;58984;51.960;5.582;2023-05-10T14:23:10;20.60;63.90
71237;DHT22;58984;51.960;5.582;2023-05-10T14:25:36;20.60;63.90
71237;DHT22;58984;51.960;5.582;2023-05-10T14:28:03;20.60;63.90
71237;DHT22;58984;51.960;5.582;2023-05-10T14:30:28;20.60;63.90
71237;DHT22;58984;51.960;5.582;2023-05-10T14:32:54;20.60;63.90
71237;DHT22;58984;51.960;5.582;2023-05-10T14:35:20;20.60;63.80
71237;DHT22;58984;51.960;5.582;2023-05-10T14:37:46;20.60;63.80
71237;DHT22;58984;51.960;5.582;2023-05-10T14:40:12;20.60;63.70
71237;DHT22;58984;51.960;5.582;2023-05-10T14:42:38;20.60;63.90
71237;DHT22;58984;51.960;5.582;2023-05-10T14:45:04;20.60;64.00
71237;DHT22;58984;51.960;5.582;2023-05-10T14:47:29;20.60;63.90
71237;DHT22;58984;51.960;5.582;2023-05-10T14:49:55;20.60;64.00
71237;DHT22;58984;51.960;5.582;2023-05-10T14:52:21;20.60;63.90
71237;DHT22;58984;51.960;5.582;2023-05-10T14:54:46;20.60;63.90
71237;DHT22;58984;51.960;5.582;2023-05-10T14:57:12;20.60;63.90
71237;DHT22;58984;51.960;5.582;2023-05-10T14:59:38;20.60;63.90
71237;DHT22;58984;51.960;5.582;2023-05-10T15:02:03;20.60;64.00
71237;DHT22;58984;51.960;5.582;2023-05-10T15:04:29;20.60;63.90
71237;DHT22;58984;51.960;5.582;2023-05-10T15:06:55;20.60;63.90
71237;DHT22;58984;51.960;5.582;2023-05-10T15:09:24;20.60;64.00
71237;DHT22;58984;51.960;5.582;2023-05-10T15:11:50;20.60;64.00
71237;DHT22;58984;51.960;5.582;2023-05-10T15:14:16;20.60;64.00
71237;DHT22;58984;51.960;5.582;2023-05-10T15:16:41;20.60;64.10
71237;DHT22;58984;51.960;5.582;2023-05-10T15:19:07;20.60;64.10
71237;DHT22;58984;51.960;5.582;2023-05-10T15:21:32;20.60;64.10
71237;DHT22;58984;51.960;5.582;2023-05-10T15:24:04;20.60;64.20
71237;DHT22;58984;51.960;5.582;2023-05-10T15:26:30;20.60;64.10
71237;DHT22;58984;51.960;5.582;2023-05-10T15:28:56;20.60;64.20
71237;DHT22;58984;51.960;5.582;2023-05-10T15:31:22;20.60;64.20
71237;DHT22;58984;51.960;5.582;2023-05-10T15:33:47;20.60;64.20
71237;DHT22;58984;51.960;5.582;2023-05-10T15:36:13;20.60;64.20
71237;DHT22;58984;51.960;5.582;2023-05-10T15:38:38;20.60;64.30
71237;DHT22;58984;51.960;5.582;2023-05-10T15:41:04;20.60;64.20
71237;DHT22;58984;51.960;5.582;2023-05-10T15:43:30;20.60;64.20
71237;DHT22;58984;51.960;5.582;2023-05-10T15:45:55;20.60;64.30
71237;DHT22;58984;51.960;5.582;2023-05-10T15:48:21;20.60;64.20
71237;DHT22;58984;51.960;5.582;2023-05-10T15:50:46;20.60;64.10
71237;DHT22;58984;51.960;5.582;2023-05-10T15:53:12;20.60;64.20
71237;DHT22;58984;51.960;5.582;2023-05-10T15:55:37;20.60;64.20
71237;DHT22;58984;51.960;5.582;2023-05-10T15:58:03;20.60;64.30
71237;DHT22;58984;51.960;5.582;2023-05-10T16:00:28;20.60;64.20
71237;DHT22;58984;51.960;5.582;2023-05-10T16:02:54;20.60;64.20
71237;DHT22;58984;51.960;5.582;2023-05-10T16:05:20;20.60;64.10